Time;durP1;ratioP1;P1;durP2;ratioP2;P2;SDS_P1;SDS_P2;PMS_P1;PMS_P2;Temp;Humidity;BMP_temperature;BMP_pressure;BME280_temperature;BME280_humidity;BME280_pressure;Samples;Min_cycle;Max_cycle;Signal;HPM_P1;HPM_P2
2022/05/12 00:00:35;;;;;;;2.80;2.30;;;22.30;49.30;;;;;;4973030;28;20191;-75
2022/05/12 00:03:02;;;;;;;2.30;2.10;;;22.30;49.30;;;;;;4973135;28;20244;-74
2022/05/12 00:05:31;;;;;;;2.70;2.50;;;22.30;49.30;;;;;;4974282;28;20205;-75
2022/05/12 00:07:58;;;;;;;2.40;2.30;;;22.30;49.50;;;;;;4974178;28;20663;-75
2022/05/12 00:10:26;;;;;;;2.47;2.25;;;22.30;49.60;;;;;;4973959;28;20293;-75
2022/05/12 00:12:54;;;;;;;2.42;2.30;;;22.30;49.50;;;;;;4974356;28;20205;-75
2022/05/12 00:15:22;;;;;;;2.55;2.30;;;22.20;49.50;;;;;;4974121;28;20202;-74
2022/05/12 00:17:49;;;;;;;2.42;2.33;;;22.20;49.50;;;;;;4919629;28;1550333;-75
2022/05/12 00:20:20;;;;;;;2.30;2.20;;;22.20;49.60;;;;;;4973739;28;20280;-75
2022/05/12 00:22:49;;;;;;;2.13;2.03;;;22.20;49.70;;;;;;4973670;28;20214;-75
2022/05/12 00:25:17;;;;;;;3.42;2.30;;;22.20;49.60;;;;;;4975225;28;20194;-75
2022/05/12 00:27:44;;;;;;;2.67;2.50;;;22.20;49.60;;;;;;4974774;28;20263;-75
2022/05/12 00:30:12;;;;;;;2.30;2.10;;;22.20;49.70;;;;;;4973422;28;20225;-75
2022/05/12 00:32:41;;;;;;;2.42;2.22;;;22.20;50.40;;;;;;4973351;28;20801;-75
2022/05/12 00:35:09;;;;;;;2.50;2.30;;;22.20;49.70;;;;;;4974708;28;20264;-75
2022/05/12 00:37:37;;;;;;;2.28;2.17;;;22.20;49.90;;;;;;4974483;28;20202;-75
2022/05/12 00:40:07;;;;;;;2.05;1.95;;;22.20;49.80;;;;;;4973438;28;20190;-75
2022/05/12 00:42:35;;;;;;;2.40;2.20;;;22.20;50.00;;;;;;4973419;28;20246;-75
2022/05/12 00:45:02;;;;;;;2.40;2.20;;;22.20;49.90;;;;;;4973386;28;20194;-74
2022/05/12 00:47:29;;;;;;;2.50;2.30;;;22.10;49.60;;;;;;4973421;28;20658;-75
2022/05/12 00:49:56;;;;;;;2.22;2.13;;;22.10;50.40;;;;;;4973270;28;20309;-75
2022/05/12 00:52:26;;;;;;;2.53;2.33;;;22.10;49.90;;;;;;4973342;28;20709;-75
2022/05/12 00:54:56;;;;;;;2.20;2.10;;;22.10;49.90;;;;;;4975149;28;20190;-75
2022/05/12 00:57:26;;;;;;;2.20;2.10;;;22.10;49.80;;;;;;4973556;28;20206;-75
2022/05/12 00:59:54;;;;;;;2.40;2.20;;;22.10;49.90;;;;;;4973491;28;20190;-75
2022/05/12 01:02:21;;;;;;;2.45;2.30;;;22.10;49.80;;;;;;4973361;28;20228;-75
2022/05/12 01:04:48;;;;;;;2.78;2.58;;;22.10;49.70;;;;;;4973392;28;20285;-75
2022/05/12 01:07:15;;;;;;;2.92;2.47;;;22.10;49.90;;;;;;4974286;28;20274;-75
2022/05/12 01:09:43;;;;;;;2.53;2.40;;;22.10;49.80;;;;;;4973223;28;20285;-75
2022/05/12 01:12:12;;;;;;;2.38;2.20;;;22.10;49.90;;;;;;4973207;28;20400;-75
2022/05/12 01:14:40;;;;;;;2.40;2.20;;;22.10;50.00;;;;;;4973454;28;20206;-75
2022/05/12 01:17:08;;;;;;;2.33;2.20;;;22.10;49.90;;;;;;4973119;28;20205;-75
2022/05/12 01:19:37;;;;;;;2.47;2.28;;;22.00;49.90;;;;;;4972940;28;20218;-75
2022/05/12 01:22:05;;;;;;;2.30;2.20;;;22.00;49.90;;;;;;4976951;28;20213;-75
2022/05/12 01:24:35;;;;;;;2.45;2.25;;;22.00;49.90;;;;;;4977845;28;20272;-76
2022/05/12 01:29:43;;;;;;;2.60;2.40;;;22.00;49.90;;;;;;4976596;28;20198;-75
2022/05/12 01:32:11;;;;;;;2.55;2.35;;;22.00;50.00;;;;;;4976454;28;20714;-75
2022/05/12 01:34:38;;;;;;;2.80;2.60;;;22.00;50.00;;;;;;4976475;28;20315;-75
2022/05/12 01:37:06;;;;;;;3.15;2.50;;;22.00;49.90;;;;;;4977705;28;20190;-75
2022/05/12 01:39:35;;;;;;;2.72;2.45;;;22.00;50.00;;;;;;4977611;28;20217;-75
2022/05/12 01:42:02;;;;;;;2.55;2.38;;;22.00;50.00;;;;;;4976360;28;20238;-73
2022/05/12 01:44:30;;;;;;;2.60;2.40;;;22.00;50.10;;;;;;4976221;28;20217;-75
2022/05/12 01:46:58;;;;;;;2.40;2.15;;;22.00;49.90;;;;;;4977443;28;20197;-75
2022/05/12 01:49:25;;;;;;;2.70;2.50;;;22.00;50.10;;;;;;4977739;28;20643;-75
2022/05/12 01:51:53;;;;;;;2.67;2.35;;;22.00;50.10;;;;;;4977203;28;20221;-75
2022/05/12 01:54:20;;;;;;;2.70;2.50;;;21.90;50.80;;;;;;4976202;28;20198;-75
2022/05/12 01:56:49;;;;;;;2.20;2.10;;;21.90;50.10;;;;;;4976074;28;20197;-75
2022/05/12 01:59:17;;;;;;;2.47;2.38;;;21.90;50.20;;;;;;4976116;28;20198;-75
2022/05/12 02:01:44;;;;;;;2.60;2.40;;;21.90;49.90;;;;;;4976154;28;20288;-75
2022/05/12 02:04:12;;;;;;;2.85;2.40;;;21.90;50.70;;;;;;4975975;28;20202;-75
2022/05/12 02:06:39;;;;;;;2.47;2.28;;;21.90;50.10;;;;;;4975903;28;20194;-75
2022/05/12 02:09:06;;;;;;;2.60;2.30;;;21.90;50.20;;;;;;4977057;28;20198;-75
2022/05/12 02:11:34;;;;;;;2.58;2.38;;;21.90;50.00;;;;;;4976915;28;20596;-75
2022/05/12 02:14:04;;;;;;;2.47;2.38;;;21.90;50.10;;;;;;4975726;28;20221;-74
2022/05/12 02:16:31;;;;;;;2.50;2.30;;;21.90;50.00;;;;;;4975756;28;20284;-75
2022/05/12 02:18:58;;;;;;;3.00;2.42;;;21.90;49.90;;;;;;4975661;28;20204;-75
2022/05/12 02:21:26;;;;;;;2.30;2.10;;;21.80;49.90;;;;;;4977584;28;20584;-75
2022/05/12 02:23:53;;;;;;;2.50;2.30;;;21.90;50.00;;;;;;4976809;28;20265;-75
2022/05/12 02:26:21;;;;;;;2.47;2.28;;;21.80;49.90;;;;;;4975612;28;20205;-75
2022/05/12 02:28:49;;;;;;;2.95;2.75;;;21.90;49.90;;;;;;4975528;28;20666;-75
2022/05/12 02:31:17;;;;;;;2.83;2.63;;;21.90;50.10;;;;;;4976358;28;20222;-75
2022/05/12 02:33:45;;;;;;;2.78;2.58;;;21.80;50.00;;;;;;4975500;28;20202;-75
2022/05/12 02:36:12;;;;;;;3.05;2.85;;;21.80;50.00;;;;;;4975357;28;20201;-75
2022/05/12 02:38:40;;;;;;;2.83;2.30;;;21.80;50.20;;;;;;4975257;28;20280;-75
2022/05/12 02:41:07;;;;;;;2.47;2.38;;;21.80;50.20;;;;;;4975169;28;20210;-75
2022/05/12 02:43:35;;;;;;;2.67;2.50;;;21.80;50.00;;;;;;4975195;28;20202;-75
2022/05/12 02:46:05;;;;;;;2.85;2.58;;;21.80;49.90;;;;;;4975195;28;20226;-74
2022/05/12 02:48:35;;;;;;;2.72;2.53;;;21.80;49.90;;;;;;4976490;28;20245;-75
2022/05/12 02:51:02;;;;;;;2.33;2.22;;;21.80;50.00;;;;;;4976458;28;20226;-74
2022/05/12 02:53:30;;;;;;;2.67;2.47;;;21.70;50.00;;;;;;4976235;28;20249;-75
2022/05/12 02:55:58;;;;;;;2.67;2.47;;;21.80;50.10;;;;;;4975020;28;20249;-75
2022/05/12 02:58:26;;;;;;;2.45;2.25;;;21.70;50.10;;;;;;4974882;28;20221;-75
2022/05/12 03:00:53;;;;;;;2.70;2.50;;;21.70;50.10;;;;;;4974844;28;20202;-75
2022/05/12 03:03:20;;;;;;;2.97;2.78;;;21.70;50.00;;;;;;4976018;28;20201;-75
2022/05/12 03:05:48;;;;;;;2.88;2.67;;;21.70;50.10;;;;;;4974791;28;20557;-75
2022/05/12 03:08:16;;;;;;;2.78;2.40;;;21.70;50.20;;;;;;4975988;28;20313;-75
2022/05/12 03:10:43;;;;;;;2.47;2.28;;;21.70;50.10;;;;;;4974527;28;20228;-75
2022/05/12 03:13:10;;;;;;;2.60;2.50;;;21.70;50.60;;;;;;4976059;28;20272;-75
2022/05/12 03:15:38;;;;;;;2.50;2.30;;;21.70;50.70;;;;;;4974526;28;20206;-75
2022/05/12 03:18:05;;;;;;;2.50;2.33;;;21.70;50.80;;;;;;4974511;28;20209;-75
2022/05/12 03:20:32;;;;;;;2.67;2.50;;;21.70;50.90;;;;;;4974517;28;20230;-75
2022/05/12 03:23:01;;;;;;;2.58;2.40;;;21.70;51.00;;;;;;4975641;28;20206;-75
2022/05/12 03:25:29;;;;;;;2.50;2.35;;;21.80;50.80;;;;;;4974462;28;20341;-75
2022/05/12 03:27:56;;;;;;;2.40;2.20;;;21.80;50.80;;;;;;4974532;28;20198;-75
2022/05/12 03:30:24;;;;;;;2.33;2.22;;;21.80;50.80;;;;;;4974323;28;20648;-74
2022/05/12 03:32:52;;;;;;;2.78;2.58;;;21.90;51.50;;;;;;4974416;28;20213;-75
2022/05/12 03:35:19;;;;;;;2.50;2.30;;;21.90;50.60;;;;;;4974469;28;20665;-75
2022/05/12 03:37:47;;;;;;;2.58;2.38;;;21.90;50.60;;;;;;4974264;28;20198;-75
2022/05/12 03:40:17;;;;;;;2.38;2.28;;;21.90;50.60;;;;;;4975438;28;20622;-75
2022/05/12 03:42:45;;;;;;;2.67;2.47;;;21.90;51.00;;;;;;4973924;28;20661;-75
2022/05/12 03:45:11;;;;;;;2.63;2.42;;;21.90;51.00;;;;;;4973437;28;20678;-75
2022/05/12 03:47:39;;;;;;;2.60;2.40;;;22.00;50.50;;;;;;4974047;28;20197;-75
2022/05/12 03:50:08;;;;;;;2.63;2.25;;;21.90;50.30;;;;;;4974092;28;20280;-75
2022/05/12 03:52:36;;;;;;;2.40;2.30;;;22.00;50.40;;;;;;4973883;28;20284;-75
2022/05/12 03:55:05;;;;;;;2.30;2.10;;;22.00;50.40;;;;;;4975773;28;20213;-74
2022/05/12 03:57:33;;;;;;;2.50;2.40;;;22.00;50.30;;;;;;4975143;28;20217;-74
2022/05/12 04:00:01;;;;;;;2.70;2.50;;;22.00;50.30;;;;;;4974169;28;20194;-75
2022/05/12 04:02:37;;;;;;;2.47;2.33;;;22.00;50.30;;;;;;4975017;28;20590;-75
2022/05/12 04:05:06;;;;;;;2.45;2.33;;;22.00;50.90;;;;;;4975920;28;20192;-75
2022/05/12 04:07:33;;;;;;;2.60;2.40;;;22.00;50.30;;;;;;4973903;28;20202;-75
2022/05/12 04:10:01;;;;;;;2.90;2.70;;;22.00;50.20;;;;;;4973684;28;20206;-75
2022/05/12 04:12:28;;;;;;;2.40;2.25;;;22.00;50.20;;;;;;4973635;28;20229;-75
2022/05/12 04:14:59;;;;;;;2.55;2.42;;;22.00;50.30;;;;;;4973897;28;20693;-75
2022/05/12 04:17:26;;;;;;;2.53;2.33;;;22.00;50.30;;;;;;4973395;28;20226;-75
2022/05/12 04:19:53;;;;;;;2.85;2.63;;;22.00;50.30;;;;;;4973915;28;20202;-75
2022/05/12 04:22:21;;;;;;;2.30;2.20;;;22.00;50.40;;;;;;4974818;28;20587;-75
2022/05/12 04:24:48;;;;;;;2.67;2.40;;;22.00;50.40;;;;;;4973636;28;20201;-76
2022/05/12 04:27:16;;;;;;;2.50;2.33;;;22.00;50.40;;;;;;4973533;28;20213;-75
2022/05/12 04:29:43;;;;;;;2.80;2.60;;;22.00;50.40;;;;;;4973518;28;20697;-75
2022/05/12 04:32:12;;;;;;;2.63;2.38;;;22.00;50.40;;;;;;4974465;28;20269;-75
2022/05/12 04:39:53;;;;;;;2.95;2.72;;;22.00;51.00;;;;;;4971775;28;20213;-70
2022/05/12 04:42:20;;;;;;;2.97;2.67;;;22.00;50.40;;;;;;4974707;28;20225;-72
2022/05/12 04:44:47;;;;;;;3.40;3.00;;;22.00;50.00;;;;;;4973384;28;20189;-71
2022/05/12 04:47:16;;;;;;;2.90;2.70;;;22.10;50.20;;;;;;4973347;28;20206;-71
2022/05/12 04:49:43;;;;;;;3.00;2.80;;;22.10;50.20;;;;;;4974566;28;20540;-72
2022/05/12 04:52:10;;;;;;;5.53;3.08;;;22.20;50.00;;;;;;4974150;28;20226;-72
2022/05/12 04:54:38;;;;;;;3.53;3.13;;;22.20;49.70;;;;;;4973811;28;20210;-71
2022/05/12 04:57:06;;;;;;;3.05;2.85;;;22.20;49.90;;;;;;4977281;28;20628;-71
2022/05/12 04:59:34;;;;;;;3.95;3.13;;;22.30;49.90;;;;;;4978589;28;20198;-72
2022/05/12 05:02:01;;;;;;;3.25;2.95;;;22.30;49.90;;;;;;4978715;28;20209;-72
2022/05/12 05:04:30;;;;;;;2.85;2.60;;;22.40;50.00;;;;;;4977507;28;20291;-71
2022/05/12 05:06:57;;;;;;;2.95;2.70;;;22.50;50.00;;;;;;4977198;28;20198;-72
2022/05/12 05:09:24;;;;;;;2.80;2.60;;;22.60;49.90;;;;;;4977459;28;20206;-72
2022/05/12 05:11:52;;;;;;;2.88;2.60;;;22.70;49.80;;;;;;4980463;28;20210;-72
2022/05/12 05:14:20;;;;;;;2.97;2.65;;;22.80;49.90;;;;;;4977194;28;20246;-72
2022/05/12 05:16:47;;;;;;;4.75;2.60;;;22.90;49.60;;;;;;4977055;28;20728;-73
2022/05/12 05:19:14;;;;;;;3.03;2.70;;;22.90;49.50;;;;;;4977980;28;20194;-74
2022/05/12 05:21:43;;;;;;;3.53;2.53;;;22.90;49.40;;;;;;4976907;28;20253;-72
2022/05/12 05:24:10;;;;;;;2.78;2.58;;;23.00;49.60;;;;;;4976811;28;20202;-72
2022/05/12 05:26:38;;;;;;;2.60;2.45;;;23.00;49.50;;;;;;4976740;28;20208;-72
2022/05/12 05:29:07;;;;;;;2.42;2.33;;;23.10;49.50;;;;;;4976600;28;20209;-73
2022/05/12 05:31:37;;;;;;;2.80;2.60;;;23.10;49.20;;;;;;4976550;28;20218;-74
2022/05/12 05:34:04;;;;;;;4.75;2.55;;;23.20;49.20;;;;;;4976652;28;20626;-72
2022/05/12 05:36:32;;;;;;;2.58;2.38;;;23.20;49.10;;;;;;4976554;28;20293;-74
2022/05/12 05:39:00;;;;;;;2.58;2.30;;;23.20;49.10;;;;;;4976453;28;20206;-74
2022/05/12 05:41:28;;;;;;;3.08;2.53;;;23.30;49.20;;;;;;4976385;28;20265;-74
2022/05/12 05:43:55;;;;;;;2.55;2.33;;;23.20;49.10;;;;;;4976368;28;20202;-72
2022/05/12 05:46:23;;;;;;;2.50;2.30;;;23.30;49.70;;;;;;4976344;28;20198;-73
2022/05/12 05:48:51;;;;;;;2.80;2.60;;;23.30;49.10;;;;;;4976162;28;20202;-74
2022/05/12 05:54:04;;;;;;;3.00;2.70;;;23.30;48.80;;;;;;4956869;28;20219;-74
2022/05/12 05:56:32;;;;;;;2.90;2.58;;;23.50;48.70;;;;;;4958109;29;20194;-74
2022/05/12 05:59:00;;;;;;;4.05;2.60;;;23.40;48.70;;;;;;4958272;28;20195;-74
2022/05/12 06:01:27;;;;;;;2.95;2.38;;;23.50;48.70;;;;;;4956623;28;20282;-73
2022/05/12 06:03:56;;;;;;;3.03;2.35;;;23.50;48.60;;;;;;4956823;28;20738;-74
2022/05/12 06:06:24;;;;;;;2.45;2.25;;;23.50;48.60;;;;;;4957455;28;20194;-73
2022/05/12 06:08:51;;;;;;;3.03;2.22;;;23.60;48.70;;;;;;4957873;28;20690;-74
2022/05/12 06:11:19;;;;;;;3.97;2.33;;;23.60;48.80;;;;;;4956581;28;20246;-73
2022/05/12 06:13:48;;;;;;;2.83;2.30;;;23.60;48.90;;;;;;4957786;28;20238;-73
2022/05/12 06:16:15;;;;;;;4.10;2.50;;;23.60;48.80;;;;;;4957899;28;20277;-73
2022/05/12 06:18:43;;;;;;;2.60;2.40;;;23.70;48.70;;;;;;4956587;29;20226;-74
2022/05/12 06:21:12;;;;;;;2.47;2.33;;;23.90;48.60;;;;;;4956462;28;20219;-74
2022/05/12 06:23:39;;;;;;;2.50;2.30;;;24.10;48.20;;;;;;4957561;28;20193;-74
2022/05/12 06:26:13;;;;;;;3.13;2.90;;;24.30;47.70;;;;;;4957507;29;20202;-74
2022/05/12 06:28:42;;;;;;;2.55;2.35;;;24.50;47.40;;;;;;4957493;28;20238;-73
2022/05/12 06:31:10;;;;;;;2.47;2.28;;;24.70;47.00;;;;;;4956151;28;20215;-73
2022/05/12 06:33:37;;;;;;;2.85;2.60;;;24.90;46.70;;;;;;4957298;28;20214;-73
2022/05/12 06:36:05;;;;;;;2.60;2.40;;;25.00;46.30;;;;;;4956190;28;20203;-74
2022/05/12 06:38:34;;;;;;;2.10;2.00;;;25.10;46.00;;;;;;4956307;28;20199;-74
2022/05/12 06:41:01;;;;;;;2.10;2.00;;;25.20;45.50;;;;;;4956582;28;20210;-73
2022/05/12 06:43:29;;;;;;;2.30;2.20;;;25.40;45.50;;;;;;4956187;28;20289;-74
2022/05/12 06:45:58;;;;;;;2.70;2.50;;;25.50;45.00;;;;;;4965773;28;20270;-73
2022/05/12 06:48:26;;;;;;;2.00;1.88;;;25.60;44.80;;;;;;4981510;28;20198;-75
2022/05/12 06:50:54;;;;;;;2.15;1.95;;;25.70;44.60;;;;;;4958504;28;20274;-73
2022/05/12 06:53:21;;;;;;;2.28;2.10;;;25.70;44.30;;;;;;4957719;28;20211;-73
2022/05/12 06:55:48;;;;;;;2.33;2.13;;;25.70;44.50;;;;;;4956252;28;20191;-74
2022/05/12 06:58:17;;;;;;;2.65;1.98;;;25.60;44.70;;;;;;4956118;28;20207;-73
2022/05/12 07:00:46;;;;;;;2.13;2.00;;;25.50;44.90;;;;;;4956138;28;20254;-73
2022/05/12 07:03:16;;;;;;;2.63;2.42;;;25.40;45.10;;;;;;4955825;28;20297;-74
2022/05/12 07:05:44;;;;;;;2.50;2.30;;;25.30;45.20;;;;;;4955834;28;20197;-75
2022/05/12 07:08:12;;;;;;;2.15;2.05;;;25.20;45.30;;;;;;4956995;28;20194;-73
2022/05/12 07:10:39;;;;;;;2.58;2.38;;;25.10;45.40;;;;;;4956835;28;20199;-73
2022/05/12 07:13:06;;;;;;;3.35;2.05;;;25.00;45.60;;;;;;4955334;28;20237;-73
2022/05/12 07:15:34;;;;;;;2.30;2.10;;;25.00;45.70;;;;;;4955417;28;20253;-74
2022/05/12 07:18:01;;;;;;;2.20;2.00;;;24.90;45.90;;;;;;4954947;28;20207;-74
2022/05/12 07:28:45;;;;;;;2.10;2.00;;;24.90;46.50;;;;;;4955411;28;20621;-74
2022/05/12 07:31:13;;;;;;;2.35;2.10;;;25.00;45.90;;;;;;4955163;28;20242;-74
2022/05/12 07:33:42;;;;;;;2.30;2.20;;;25.00;45.80;;;;;;4956285;28;20234;-74
2022/05/12 07:36:12;;;;;;;2.20;2.10;;;25.00;45.80;;;;;;4955027;28;20685;-73
2022/05/12 07:38:39;;;;;;;3.53;2.10;;;25.10;45.70;;;;;;4956199;28;20197;-73
2022/05/12 07:41:10;;;;;;;2.00;1.90;;;25.30;45.40;;;;;;4954852;28;20215;-74
2022/05/12 07:43:39;;;;;;;2.42;2.22;;;25.40;44.90;;;;;;4956235;28;20195;-74
2022/05/12 07:46:06;;;;;;;2.47;2.28;;;25.50;44.70;;;;;;4956136;28;20200;-73
2022/05/12 07:48:33;;;;;;;1.90;1.80;;;25.60;44.80;;;;;;4955017;28;20207;-74
2022/05/12 07:51:01;;;;;;;2.83;2.63;;;25.60;44.70;;;;;;4956206;28;20203;-74
2022/05/12 07:53:29;;;;;;;2.15;1.95;;;25.60;44.60;;;;;;4956331;28;20572;-74
2022/05/12 07:55:57;;;;;;;2.17;2.08;;;25.70;44.50;;;;;;4955467;28;20715;-75
2022/05/12 07:58:24;;;;;;;2.75;2.30;;;25.90;44.20;;;;;;4954882;28;20680;-74
2022/05/12 08:00:52;;;;;;;2.00;1.90;;;26.00;43.80;;;;;;4955838;28;20193;-74
2022/05/12 08:03:19;;;;;;;2.20;2.10;;;26.10;43.60;;;;;;4954628;28;20210;-74
2022/05/12 08:05:46;;;;;;;2.40;2.20;;;26.30;43.20;;;;;;4954595;28;20683;-74
2022/05/12 08:08:14;;;;;;;2.00;1.90;;;26.40;43.00;;;;;;4955895;28;20199;-74
2022/05/12 08:10:43;;;;;;;2.25;2.05;;;26.50;42.80;;;;;;4955705;28;20213;-74
2022/05/12 08:13:16;;;;;;;2.00;1.90;;;26.50;42.80;;;;;;4954611;29;20247;-73
2022/05/12 08:15:43;;;;;;;1.90;1.80;;;26.50;42.70;;;;;;4954526;29;20194;-74
2022/05/12 08:18:11;;;;;;;2.10;2.00;;;26.50;42.60;;;;;;4954478;29;20305;-73
2022/05/12 08:20:38;;;;;;;2.28;2.08;;;26.50;42.50;;;;;;4954542;28;20213;-74
2022/05/12 08:23:06;;;;;;;2.00;1.90;;;26.50;42.50;;;;;;4954234;28;20223;-72
2022/05/12 08:25:34;;;;;;;1.90;1.80;;;26.60;42.50;;;;;;4955681;28;20567;-74
2022/05/12 08:28:03;;;;;;;2.00;1.90;;;26.70;42.10;;;;;;4954437;28;20238;-74
2022/05/12 08:30:31;;;;;;;2.00;1.90;;;26.70;42.10;;;;;;4955421;28;20198;-73
2022/05/12 08:32:58;;;;;;;1.95;1.85;;;26.80;41.90;;;;;;4954119;28;20227;-74
2022/05/12 08:35:25;;;;;;;2.42;2.22;;;26.80;42.10;;;;;;4954741;28;20554;-74
2022/05/12 08:37:53;;;;;;;1.80;1.70;;;26.80;42.30;;;;;;4955502;28;20234;-74
2022/05/12 08:40:23;;;;;;;2.00;1.90;;;26.80;42.10;;;;;;4954329;28;20289;-73
2022/05/12 08:42:51;;;;;;;2.10;2.00;;;26.80;42.10;;;;;;4954071;28;20223;-74
2022/05/12 08:45:21;;;;;;;2.17;2.08;;;26.80;42.20;;;;;;4955389;28;20222;-75
2022/05/12 08:47:49;;;;;;;1.92;1.83;;;26.70;42.30;;;;;;4954770;28;20198;-74
2022/05/12 08:50:21;;;;;;;2.13;2.03;;;26.60;42.60;;;;;;4955368;28;20275;-74
2022/05/12 08:52:49;;;;;;;2.17;2.08;;;26.40;42.70;;;;;;4953853;28;20219;-74
2022/05/12 08:55:18;;;;;;;2.00;1.90;;;26.30;43.00;;;;;;4954333;28;20225;-74
2022/05/12 08:57:50;;;;;;;2.03;1.92;;;26.20;43.40;;;;;;4953955;29;20664;-74
2022/05/12 09:00:19;;;;;;;2.00;1.90;;;26.10;43.60;;;;;;4953979;28;20568;-73
2022/05/12 09:02:50;;;;;;;1.90;1.80;;;26.00;43.50;;;;;;4955058;28;20638;-74
2022/05/12 09:05:19;;;;;;;1.75;1.65;;;26.10;43.40;;;;;;4953931;28;20656;-74
2022/05/12 09:07:48;;;;;;;1.95;1.85;;;26.20;43.20;;;;;;4955030;28;20572;-74
2022/05/12 09:10:27;;;;;;;2.05;1.85;;;26.30;43.00;;;;;;4953909;28;20213;-74
2022/05/12 09:12:59;;;;;;;2.08;1.98;;;26.40;42.80;;;;;;4953844;28;20222;-74
2022/05/12 09:15:30;;;;;;;2.10;2.00;;;26.40;42.80;;;;;;4955269;28;20198;-74
2022/05/12 09:17:59;;;;;;;2.08;1.98;;;26.50;42.70;;;;;;4954121;28;20201;-74
2022/05/12 09:20:27;;;;;;;1.88;1.77;;;26.50;42.60;;;;;;4953889;28;20203;-73
2022/05/12 09:22:55;;;;;;;2.00;1.90;;;26.40;42.60;;;;;;4953835;28;20254;-74
2022/05/12 09:25:34;;;;;;;2.78;2.00;;;26.40;42.70;;;;;;4953759;29;20257;-74
2022/05/12 09:28:19;;;;;;;1.90;1.80;;;26.30;42.90;;;;;;4953835;28;20202;-74
2022/05/12 09:30:50;;;;;;;2.30;2.10;;;26.20;43.10;;;;;;4954305;28;20233;-73
2022/05/12 09:33:26;;;;;;;2.10;1.80;;;26.20;43.30;;;;;;4953744;28;20306;-73
2022/05/12 09:36:01;;;;;;;1.98;1.88;;;26.10;43.40;;;;;;4955516;29;20186;-74
2022/05/12 09:38:28;;;;;;;2.00;1.90;;;26.00;43.50;;;;;;4954056;28;20202;-74
2022/05/12 09:40:56;;;;;;;2.10;2.00;;;25.90;43.60;;;;;;4953608;28;20199;-74
2022/05/12 09:43:29;;;;;;;2.20;2.00;;;25.90;43.70;;;;;;4956630;28;20203;-74
2022/05/12 09:46:04;;;;;;;2.28;1.80;;;25.90;43.90;;;;;;4957547;28;20540;-74
2022/05/12 09:48:32;;;;;;;2.08;1.92;;;25.80;44.00;;;;;;4957057;28;20202;-74
2022/05/12 09:51:22;;;;;;;1.95;1.85;;;25.80;43.80;;;;;;4956711;28;20206;-74
2022/05/12 09:53:50;;;;;;;1.95;1.85;;;25.90;43.90;;;;;;4956961;28;20225;-74
2022/05/12 09:56:32;;;;;;;1.95;1.85;;;25.90;43.90;;;;;;4956941;28;20203;-73
2022/05/12 09:59:06;;;;;;;1.80;1.70;;;25.90;43.80;;;;;;4957965;28;20245;-74
2022/05/12 10:01:35;;;;;;;2.10;2.00;;;25.90;43.80;;;;;;4956697;28;20790;-74
2022/05/12 10:09:55;;;;;;;2.17;1.98;;;26.00;43.70;;;;;;4934305;29;20536;-74
2022/05/12 10:12:24;;;;;;;2.00;1.90;;;26.10;43.50;;;;;;4956743;28;20226;-74
2022/05/12 10:14:53;;;;;;;1.95;1.85;;;26.10;43.30;;;;;;4957760;28;20195;-74
2022/05/12 10:17:27;;;;;;;2.00;1.90;;;26.20;43.20;;;;;;4957659;28;20198;-74
2022/05/12 10:19:54;;;;;;;1.92;1.83;;;26.20;43.20;;;;;;4956553;28;20740;-74
2022/05/12 10:22:29;;;;;;;1.90;1.80;;;26.20;43.30;;;;;;4956281;28;20229;-74
2022/05/12 10:25:10;;;;;;;1.90;1.80;;;26.20;43.30;;;;;;4956385;28;20195;-74
2022/05/12 10:27:43;;;;;;;1.90;1.80;;;26.10;43.40;;;;;;4957735;29;20179;-74
2022/05/12 10:30:22;;;;;;;1.83;1.73;;;26.10;43.60;;;;;;4957561;28;20187;-74
2022/05/12 10:32:58;;;;;;;1.88;1.77;;;26.00;43.50;;;;;;4956183;28;20219;-74
2022/05/12 10:35:28;;;;;;;1.92;1.83;;;26.00;43.60;;;;;;4957351;28;20266;-74
2022/05/12 10:38:01;;;;;;;1.90;1.80;;;26.00;43.70;;;;;;4956172;28;20319;-74
2022/05/12 10:40:32;;;;;;;2.45;1.98;;;25.90;43.70;;;;;;4956057;29;20270;-74
2022/05/12 10:43:23;;;;;;;1.90;1.70;;;25.90;43.80;;;;;;4956016;28;20278;-74
2022/05/12 10:45:54;;;;;;;1.88;1.77;;;25.90;43.90;;;;;;4956172;28;20286;-74
2022/05/12 10:48:44;;;;;;;1.90;1.80;;;25.80;44.00;;;;;;4956030;28;20576;-74
2022/05/12 10:51:18;;;;;;;1.52;1.50;;;25.80;44.20;;;;;;4955741;28;20231;-73
2022/05/12 10:53:52;;;;;;;1.90;1.80;;;25.70;44.10;;;;;;4955704;28;20229;-73
2022/05/12 10:56:29;;;;;;;1.90;1.80;;;25.70;44.20;;;;;;4956014;28;20195;-74
2022/05/12 10:59:02;;;;;;;2.00;1.88;;;25.70;44.30;;;;;;4956967;28;20234;-74
2022/05/12 11:04:15;;;;;;;1.90;1.80;;;25.60;44.30;;;;;;5847504;23;20225;-73
2022/05/12 11:06:45;;;;;;;2.00;1.90;;;25.60;44.40;;;;;;4994696;28;20280;-74
2022/05/12 11:09:14;;;;;;;1.90;1.80;;;25.60;44.40;;;;;;4995573;28;20685;-74
2022/05/12 11:11:43;;;;;;;2.08;1.98;;;25.60;44.40;;;;;;4986399;28;20218;-74
2022/05/12 11:14:12;;;;;;;2.00;1.90;;;25.60;44.50;;;;;;4974863;28;20210;-74
2022/05/12 11:16:44;;;;;;;2.20;2.00;;;25.60;44.60;;;;;;4974881;28;20570;-74
2022/05/12 11:19:17;;;;;;;1.92;1.83;;;25.60;44.60;;;;;;4974733;28;20202;-73
2022/05/12 11:21:50;;;;;;;1.88;1.77;;;25.60;44.60;;;;;;4974799;28;20218;-74
2022/05/12 11:24:25;;;;;;;1.90;1.80;;;25.60;44.70;;;;;;4975890;28;20178;-74
2022/05/12 11:27:23;;;;;;;1.70;1.60;;;25.60;44.70;;;;;;4976175;28;20178;-74
2022/05/12 11:29:58;;;;;;;1.98;1.88;;;25.60;44.70;;;;;;4953009;28;20659;-74
2022/05/12 11:32:30;;;;;;;1.90;1.80;;;25.60;44.70;;;;;;4975959;28;20214;-74
2022/05/12 11:35:01;;;;;;;1.85;1.75;;;25.60;44.70;;;;;;4974381;28;20292;-74
2022/05/12 11:37:32;;;;;;;1.90;1.80;;;25.60;44.70;;;;;;4974539;28;20205;-74
2022/05/12 11:40:00;;;;;;;1.90;1.80;;;25.60;44.70;;;;;;4974461;28;20245;-74
2022/05/12 11:42:28;;;;;;;1.90;1.80;;;25.60;44.80;;;;;;4975603;28;20213;-74
2022/05/12 11:44:59;;;;;;;1.88;1.77;;;25.60;44.80;;;;;;4974256;28;20202;-74
2022/05/12 11:48:03;;;;;;;2.00;1.90;;;25.60;44.80;;;;;;4974241;28;20190;-74
2022/05/12 11:51:07;;;;;;;1.90;1.80;;;25.60;44.70;;;;;;4974242;28;20193;-73
2022/05/12 11:53:53;;;;;;;1.67;1.58;;;25.60;44.70;;;;;;4974030;28;20221;-74
2022/05/12 11:56:36;;;;;;;1.88;1.77;;;25.60;44.70;;;;;;4974105;28;20206;-74
2022/05/12 11:59:16;;;;;;;1.88;1.63;;;25.60;44.70;;;;;;4975295;28;20179;-74
2022/05/12 12:01:51;;;;;;;1.80;1.70;;;25.60;44.70;;;;;;4975380;28;20220;-74
2022/05/12 12:04:41;;;;;;;1.98;1.88;;;25.60;44.70;;;;;;4973258;28;20236;-74
2022/05/12 12:07:09;;;;;;;1.90;1.80;;;25.60;44.80;;;;;;4974005;28;20216;-73
2022/05/12 12:12:56;;;;;;;2.10;2.00;;;25.60;44.80;;;;;;5802345;23;20596;-68
2022/05/12 12:15:45;;;;;;;1.85;1.75;;;25.60;44.80;;;;;;4995816;28;20194;-68
2022/05/12 12:18:50;;;;;;;1.63;1.60;;;25.60;44.80;;;;;;4995944;28;20197;-67
2022/05/12 12:21:47;;;;;;;1.80;1.70;;;25.60;44.80;;;;;;4994888;28;20201;-67
2022/05/12 12:24:38;;;;;;;1.90;1.80;;;25.60;44.80;;;;;;4974925;28;20226;-67
2022/05/12 12:27:45;;;;;;;1.70;1.60;;;25.60;44.80;;;;;;5013312;23;20229;-73
2022/05/12 12:30:40;;;;;;;1.75;1.65;;;25.60;44.80;;;;;;4936082;28;20205;-73
2022/05/12 12:33:19;;;;;;;1.88;1.77;;;25.60;44.80;;;;;;4973177;28;20658;-73
2022/05/12 12:35:53;;;;;;;1.90;1.80;;;25.60;44.80;;;;;;4972820;28;20202;-73
2022/05/12 12:39:02;;;;;;;1.90;1.80;;;25.60;44.80;;;;;;4955398;28;20242;-73
2022/05/12 12:41:44;;;;;;;1.80;1.70;;;25.60;44.90;;;;;;4954101;29;20203;-73
2022/05/12 12:44:17;;;;;;;2.05;1.95;;;25.60;44.90;;;;;;4954210;28;20286;-73
2022/05/12 12:46:52;;;;;;;2.08;1.98;;;25.60;44.90;;;;;;4953999;28;20229;-73
2022/05/12 12:49:22;;;;;;;2.10;2.00;;;25.70;45.00;;;;;;4954113;28;20230;-73
2022/05/12 12:51:53;;;;;;;2.08;1.98;;;25.60;44.90;;;;;;4953977;29;20195;-73
2022/05/12 12:57:08;;;;;;;2.10;2.00;;;25.70;44.90;;;;;;4954001;28;20221;-73
2022/05/12 12:59:35;;;;;;;1.60;1.60;;;25.70;44.90;;;;;;4955304;28;20199;-74
2022/05/12 13:02:04;;;;;;;2.00;1.90;;;25.70;44.90;;;;;;4954166;28;20206;-73
2022/05/12 13:04:33;;;;;;;2.10;2.00;;;25.70;44.80;;;;;;4955390;29;20187;-73
2022/05/12 13:07:02;;;;;;;1.80;1.70;;;25.70;44.80;;;;;;4954019;28;20237;-73
2022/05/12 13:09:30;;;;;;;1.90;1.80;;;25.70;44.90;;;;;;4955242;28;20225;-73
2022/05/12 13:12:08;;;;;;;2.10;2.00;;;25.80;45.00;;;;;;4954589;28;20214;-73
2022/05/12 13:14:38;;;;;;;1.95;1.85;;;25.80;44.90;;;;;;4953978;28;20223;-73
2022/05/12 13:17:07;;;;;;;1.80;1.70;;;25.70;44.90;;;;;;4955170;28;20218;-73
2022/05/12 13:19:37;;;;;;;1.90;1.80;;;25.70;44.90;;;;;;4957583;28;20202;-73
2022/05/12 13:22:05;;;;;;;2.15;2.05;;;25.70;44.90;;;;;;4958742;28;20667;-73
2022/05/12 13:24:32;;;;;;;1.70;1.60;;;25.70;44.90;;;;;;4957521;28;20199;-73
2022/05/12 13:27:01;;;;;;;2.28;1.90;;;25.70;44.90;;;;;;4957288;28;20249;-73
2022/05/12 13:29:29;;;;;;;2.67;1.88;;;25.70;45.00;;;;;;4957390;28;20194;-73
2022/05/12 13:32:00;;;;;;;2.13;1.90;;;25.70;45.00;;;;;;4957537;28;20202;-72
2022/05/12 13:34:29;;;;;;;1.90;1.80;;;25.70;45.10;;;;;;4958751;29;20223;-73
2022/05/12 13:36:59;;;;;;;2.00;1.90;;;25.70;45.10;;;;;;4958454;28;20206;-73